sensor_id;sensor_type;location;lat;lon;timestamp;pressure;altitude;pressure_sealevel;temperature;humidity
39177;BME280;24904;52.208;21.192;2023-05-12T00:02:15;101186.92;;;10.84;42.97
39177;BME280;24904;52.208;21.192;2023-05-12T00:07:18;101184.92;;;10.83;43.14
39177;BME280;24904;52.208;21.192;2023-05-12T00:12:22;101189.09;;;10.80;42.75
39177;BME280;24904;52.208;21.192;2023-05-12T00:17:25;101185.66;;;10.78;42.95
39177;BME280;24904;52.208;21.192;2023-05-12T00:22:29;101188.20;;;10.75;42.81
39177;BME280;24904;52.208;21.192;2023-05-12T00:27:33;101190.86;;;10.71;43.02
39177;BME280;24904;52.208;21.192;2023-05-12T00:32:36;101191.67;;;10.69;43.03
39177;BME280;24904;52.208;21.192;2023-05-12T00:37:39;101197.31;;;10.62;43.02
39177;BME280;24904;52.208;21.192;2023-05-12T00:42:42;101194.36;;;10.57;43.24
39177;BME280;24904;52.208;21.192;2023-05-12T00:47:45;101193.38;;;10.55;43.24
39177;BME280;24904;52.208;21.192;2023-05-12T00:52:49;101199.31;;;10.55;43.31
39177;BME280;24904;52.208;21.192;2023-05-12T00:57:52;101204.91;;;10.52;43.25
39177;BME280;24904;52.208;21.192;2023-05-12T01:02:56;101206.16;;;10.52;43.09
39177;BME280;24904;52.208;21.192;2023-05-12T01:08:01;101210.35;;;10.50;43.09
39177;BME280;24904;52.208;21.192;2023-05-12T01:13:05;101212.25;;;10.48;43.17
39177;BME280;24904;52.208;21.192;2023-05-12T01:18:10;101214.85;;;10.42;43.22
39177;BME280;24904;52.208;21.192;2023-05-12T01:23:18;101215.15;;;10.38;43.32
39177;BME280;24904;52.208;21.192;2023-05-12T01:28:22;101216.21;;;10.34;43.54
39177;BME280;24904;52.208;21.192;2023-05-12T01:33:26;101219.20;;;10.30;43.66
39177;BME280;24904;52.208;21.192;2023-05-12T01:38:31;101222.89;;;10.28;43.47
39177;BME280;24904;52.208;21.192;2023-05-12T01:43:34;101223.52;;;10.25;43.66
39177;BME280;24904;52.208;21.192;2023-05-12T01:48:37;101223.86;;;10.24;43.84
39177;BME280;24904;52.208;21.192;2023-05-12T01:53:41;101224.82;;;10.21;43.82
39177;BME280;24904;52.208;21.192;2023-05-12T01:58:45;101223.39;;;10.18;43.73
39177;BME280;24904;52.208;21.192;2023-05-12T02:03:48;101227.55;;;10.12;43.90
39177;BME280;24904;52.208;21.192;2023-05-12T02:08:51;101226.03;;;10.08;43.72
39177;BME280;24904;52.208;21.192;2023-05-12T02:13:55;101224.20;;;10.08;43.88
39177;BME280;24904;52.208;21.192;2023-05-12T02:18:59;101224.91;;;10.01;44.01
39177;BME280;24904;52.208;21.192;2023-05-12T02:24:02;101226.37;;;9.98;44.08
39177;BME280;24904;52.208;21.192;2023-05-12T02:29:06;101226.19;;;9.94;44.06
39177;BME280;24904;52.208;21.192;2023-05-12T02:34:10;101232.90;;;9.90;44.21
39177;BME280;24904;52.208;21.192;2023-05-12T02:39:13;101234.20;;;9.86;44.26
39177;BME280;24904;52.208;21.192;2023-05-12T02:44:16;101236.90;;;9.81;44.43
39177;BME280;24904;52.208;21.192;2023-05-12T02:49:22;101242.09;;;9.80;44.33
39177;BME280;24904;52.208;21.192;2023-05-12T02:54:25;101247.75;;;9.74;44.48
39177;BME280;24904;52.208;21.192;2023-05-12T02:59:28;101249.48;;;9.71;44.53
39177;BME280;24904;52.208;21.192;2023-05-12T03:04:31;101254.98;;;9.68;44.64
39177;BME280;24904;52.208;21.192;2023-05-12T03:09:35;101253.95;;;9.64;45.02
39177;BME280;24904;52.208;21.192;2023-05-12T03:14:38;101251.09;;;9.65;44.89
39177;BME280;24904;52.208;21.192;2023-05-12T03:19:41;101253.63;;;9.61;45.10
39177;BME280;24904;52.208;21.192;2023-05-12T03:24:44;101253.71;;;9.61;45.11
39177;BME280;24904;52.208;21.192;2023-05-12T03:29:48;101255.02;;;9.63;45.13
39177;BME280;24904;52.208;21.192;2023-05-12T03:34:51;101254.39;;;9.63;45.19
39177;BME280;24904;52.208;21.192;2023-05-12T03:39:54;101255.12;;;9.64;45.27
39177;BME280;24904;52.208;21.192;2023-05-12T03:44:58;101262.73;;;9.64;45.36
39177;BME280;24904;52.208;21.192;2023-05-12T03:50:02;101263.94;;;9.65;45.47
39177;BME280;24904;52.208;21.192;2023-05-12T03:55:06;101269.04;;;9.71;45.49
39177;BME280;24904;52.208;21.192;2023-05-12T04:05:12;101274.48;;;9.83;45.57
39177;BME280;24904;52.208;21.192;2023-05-12T04:10:17;101278.81;;;9.89;45.65
39177;BME280;24904;52.208;21.192;2023-05-12T04:15:20;101282.14;;;9.96;45.47
39177;BME280;24904;52.208;21.192;2023-05-12T04:20:23;101282.98;;;10.03;45.58
39177;BME280;24904;52.208;21.192;2023-05-12T04:25:26;101284.22;;;10.15;45.62
39177;BME280;24904;52.208;21.192;2023-05-12T04:30:29;101289.45;;;10.25;45.56
39177;BME280;24904;52.208;21.192;2023-05-12T04:35:33;101288.14;;;10.37;45.42
39177;BME280;24904;52.208;21.192;2023-05-12T04:40:37;101291.84;;;10.49;45.60
39177;BME280;24904;52.208;21.192;2023-05-12T04:45:40;101294.61;;;10.62;45.76
39177;BME280;24904;52.208;21.192;2023-05-12T04:50:43;101297.57;;;10.74;45.49
39177;BME280;24904;52.208;21.192;2023-05-12T04:55:46;101301.23;;;10.88;45.63
39177;BME280;24904;52.208;21.192;2023-05-12T05:00:52;101304.17;;;11.03;45.67
39177;BME280;24904;52.208;21.192;2023-05-12T05:05:56;101306.24;;;11.17;45.66
39177;BME280;24904;52.208;21.192;2023-05-12T05:11:00;101311.25;;;11.33;45.60
39177;BME280;24904;52.208;21.192;2023-05-12T05:16:05;101316.23;;;11.48;45.23
39177;BME280;24904;52.208;21.192;2023-05-12T05:21:09;101319.71;;;11.63;45.23
39177;BME280;24904;52.208;21.192;2023-05-12T05:26:12;101321.17;;;11.79;45.24
39177;BME280;24904;52.208;21.192;2023-05-12T05:31:16;101325.45;;;11.96;44.96
39177;BME280;24904;52.208;21.192;2023-05-12T05:36:19;101327.89;;;12.15;45.03
39177;BME280;24904;52.208;21.192;2023-05-12T05:41:23;101327.70;;;12.33;44.45
39177;BME280;24904;52.208;21.192;2023-05-12T05:46:27;101327.95;;;12.51;44.39
39177;BME280;24904;52.208;21.192;2023-05-12T05:51:30;101331.27;;;12.69;44.25
39177;BME280;24904;52.208;21.192;2023-05-12T05:56:35;101336.34;;;12.88;43.98
39177;BME280;24904;52.208;21.192;2023-05-12T06:01:39;101337.92;;;13.08;43.58
39177;BME280;24904;52.208;21.192;2023-05-12T06:06:42;101337.58;;;13.29;43.52
39177;BME280;24904;52.208;21.192;2023-05-12T06:11:46;101338.64;;;13.52;43.25
39177;BME280;24904;52.208;21.192;2023-05-12T06:16:51;101341.47;;;13.73;42.84
39177;BME280;24904;52.208;21.192;2023-05-12T06:21:54;101342.77;;;13.94;42.75
39177;BME280;24904;52.208;21.192;2023-05-12T06:26:57;101345.74;;;14.17;42.44
39177;BME280;24904;52.208;21.192;2023-05-12T06:32:00;101346.73;;;14.41;42.19
39177;BME280;24904;52.208;21.192;2023-05-12T06:37:03;101343.06;;;14.66;42.00
39177;BME280;24904;52.208;21.192;2023-05-12T06:42:06;101348.73;;;14.90;41.50
39177;BME280;24904;52.208;21.192;2023-05-12T06:47:16;101355.89;;;15.12;41.24
39177;BME280;24904;52.208;21.192;2023-05-12T06:52:18;101353.91;;;15.32;40.83
39177;BME280;24904;52.208;21.192;2023-05-12T06:57:25;101355.16;;;15.53;40.66
39177;BME280;24904;52.208;21.192;2023-05-12T07:02:28;101349.13;;;15.71;40.29
39177;BME280;24904;52.208;21.192;2023-05-12T07:07:31;101349.88;;;15.92;40.35
39177;BME280;24904;52.208;21.192;2023-05-12T07:12:34;101351.70;;;16.12;39.66
39177;BME280;24904;52.208;21.192;2023-05-12T07:17:37;101359.07;;;16.33;39.05
39177;BME280;24904;52.208;21.192;2023-05-12T07:22:40;101360.54;;;16.47;38.31
39177;BME280;24904;52.208;21.192;2023-05-12T07:27:43;101356.15;;;16.62;38.37
39177;BME280;24904;52.208;21.192;2023-05-12T07:32:46;101360.72;;;16.80;37.94
39177;BME280;24904;52.208;21.192;2023-05-12T07:37:49;101359.95;;;16.97;37.53
39177;BME280;24904;52.208;21.192;2023-05-12T07:42:52;101361.38;;;17.18;37.13
39177;BME280;24904;52.208;21.192;2023-05-12T07:47:56;101361.52;;;17.37;36.74
39177;BME280;24904;52.208;21.192;2023-05-12T07:52:59;101364.29;;;17.50;35.84
39177;BME280;24904;52.208;21.192;2023-05-12T07:58:02;101366.40;;;17.63;35.79
39177;BME280;24904;52.208;21.192;2023-05-12T08:03:05;101370.14;;;17.73;34.99
39177;BME280;24904;52.208;21.192;2023-05-12T08:08:08;101369.86;;;17.84;33.96
39177;BME280;24904;52.208;21.192;2023-05-12T08:13:16;101368.98;;;17.88;33.48
39177;BME280;24904;52.208;21.192;2023-05-12T08:18:19;101361.20;;;17.93;32.96
39177;BME280;24904;52.208;21.192;2023-05-12T08:23:22;101357.44;;;18.04;32.79
39177;BME280;24904;52.208;21.192;2023-05-12T08:28:25;101362.23;;;18.13;32.44
39177;BME280;24904;52.208;21.192;2023-05-12T08:33:29;101360.19;;;18.24;31.46
39177;BME280;24904;52.208;21.192;2023-05-12T08:38:32;101358.73;;;18.31;31.01
39177;BME280;24904;52.208;21.192;2023-05-12T08:43:40;101373.13;;;18.32;30.38
39177;BME280;24904;52.208;21.192;2023-05-12T08:48:45;101362.47;;;18.28;30.25
39177;BME280;24904;52.208;21.192;2023-05-12T08:53:48;101363.99;;;18.30;29.88
39177;BME280;24904;52.208;21.192;2023-05-12T08:58:53;101359.02;;;18.39;29.96
39177;BME280;24904;52.208;21.192;2023-05-12T09:03:56;101357.39;;;18.46;29.39
39177;BME280;24904;52.208;21.192;2023-05-12T09:08:59;101343.47;;;18.50;29.48
39177;BME280;24904;52.208;21.192;2023-05-12T09:14:06;101346.42;;;18.61;29.44
39177;BME280;24904;52.208;21.192;2023-05-12T09:19:10;101359.16;;;18.73;28.71
39177;BME280;24904;52.208;21.192;2023-05-12T09:24:13;101353.30;;;18.71;28.86
39177;BME280;24904;52.208;21.192;2023-05-12T09:29:16;101354.70;;;18.84;28.68
39177;BME280;24904;52.208;21.192;2023-05-12T09:34:27;101350.52;;;18.91;28.72
39177;BME280;24904;52.208;21.192;2023-05-12T09:39:31;101346.46;;;19.04;28.14
39177;BME280;24904;52.208;21.192;2023-05-12T09:44:34;101336.86;;;19.00;27.93
39177;BME280;24904;52.208;21.192;2023-05-12T09:49:37;101334.63;;;19.11;28.52
39177;BME280;24904;52.208;21.192;2023-05-12T09:54:40;101337.00;;;19.21;28.10
39177;BME280;24904;52.208;21.192;2023-05-12T09:59:44;101332.79;;;19.30;28.06
39177;BME280;24904;52.208;21.192;2023-05-12T10:04:51;101332.09;;;19.36;27.93
39177;BME280;24904;52.208;21.192;2023-05-12T10:09:56;101330.23;;;19.46;27.90
39177;BME280;24904;52.208;21.192;2023-05-12T10:15:01;101333.42;;;19.47;27.46
39177;BME280;24904;52.208;21.192;2023-05-12T10:20:06;101322.79;;;19.41;27.53
39177;BME280;24904;52.208;21.192;2023-05-12T10:25:11;101327.15;;;19.45;27.53
39177;BME280;24904;52.208;21.192;2023-05-12T10:30:16;101324.83;;;19.46;27.26
39177;BME280;24904;52.208;21.192;2023-05-12T10:35:19;101320.77;;;19.46;27.35
39177;BME280;24904;52.208;21.192;2023-05-12T10:40:33;101316.39;;;19.46;27.27
39177;BME280;24904;52.208;21.192;2023-05-12T10:45:36;101322.83;;;19.47;27.08
39177;BME280;24904;52.208;21.192;2023-05-12T10:50:52;101321.26;;;19.54;26.97
39177;BME280;24904;52.208;21.192;2023-05-12T10:55:55;101319.18;;;19.54;27.20
39177;BME280;24904;52.208;21.192;2023-05-12T11:01:05;101317.60;;;19.51;27.07
39177;BME280;24904;52.208;21.192;2023-05-12T11:06:18;101307.39;;;19.54;26.77
39177;BME280;24904;52.208;21.192;2023-05-12T11:11:22;101307.40;;;19.54;27.17
39177;BME280;24904;52.208;21.192;2023-05-12T11:16:25;101305.70;;;19.58;27.26
39177;BME280;24904;52.208;21.192;2023-05-12T11:21:29;101305.12;;;19.67;27.10
39177;BME280;24904;52.208;21.192;2023-05-12T11:26:33;101306.44;;;19.70;26.66
39177;BME280;24904;52.208;21.192;2023-05-12T11:31:36;101304.48;;;19.75;27.06
39177;BME280;24904;52.208;21.192;2023-05-12T11:36:40;101306.56;;;19.80;26.74
39177;BME280;24904;52.208;21.192;2023-05-12T11:41:44;101292.54;;;19.81;26.83
39177;BME280;24904;52.208;21.192;2023-05-12T11:46:57;101304.45;;;19.91;26.85
39177;BME280;24904;52.208;21.192;2023-05-12T11:52:01;101303.02;;;19.91;26.40
39177;BME280;24904;52.208;21.192;2023-05-12T11:57:05;101289.23;;;19.83;25.96
39177;BME280;24904;52.208;21.192;2023-05-12T12:02:19;101299.23;;;19.75;25.98
39177;BME280;24904;52.208;21.192;2023-05-12T12:07:33;101285.21;;;19.67;25.94
39177;BME280;24904;52.208;21.192;2023-05-12T12:12:36;101289.48;;;19.70;26.15
39177;BME280;24904;52.208;21.192;2023-05-12T12:17:39;101294.83;;;19.63;26.09
39177;BME280;24904;52.208;21.192;2023-05-12T12:22:42;101294.04;;;19.63;26.32
39177;BME280;24904;52.208;21.192;2023-05-12T12:27:45;101277.66;;;19.61;25.94
39177;BME280;24904;52.208;21.192;2023-05-12T12:32:49;101282.98;;;19.61;26.24
39177;BME280;24904;52.208;21.192;2023-05-12T12:37:52;101282.75;;;19.50;26.55
39177;BME280;24904;52.208;21.192;2023-05-12T12:42:55;101283.95;;;19.44;26.08
39177;BME280;24904;52.208;21.192;2023-05-12T12:47:58;101283.00;;;19.43;26.06
39177;BME280;24904;52.208;21.192;2023-05-12T12:53:01;101278.64;;;19.48;26.22
39177;BME280;24904;52.208;21.192;2023-05-12T12:58:04;101267.58;;;19.57;26.32
39177;BME280;24904;52.208;21.192;2023-05-12T13:03:07;101263.05;;;19.71;26.26
39177;BME280;24904;52.208;21.192;2023-05-12T13:08:10;101256.31;;;19.81;26.37
39177;BME280;24904;52.208;21.192;2023-05-12T13:13:13;101254.67;;;19.91;26.18
39177;BME280;24904;52.208;21.192;2023-05-12T13:18:17;101251.95;;;19.96;26.13
39177;BME280;24904;52.208;21.192;2023-05-12T13:23:20;101256.64;;;19.97;25.71
39177;BME280;24904;52.208;21.192;2023-05-12T13:28:23;101260.70;;;19.97;25.62
39177;BME280;24904;52.208;21.192;2023-05-12T13:33:26;101249.74;;;19.90;25.58
39177;BME280;24904;52.208;21.192;2023-05-12T13:38:29;101239.69;;;19.86;25.94
39177;BME280;24904;52.208;21.192;2023-05-12T13:43:32;101234.09;;;19.88;25.88
39177;BME280;24904;52.208;21.192;2023-05-12T13:48:35;101230.95;;;19.90;25.81
39177;BME280;24904;52.208;21.192;2023-05-12T13:53:38;101231.44;;;19.89;25.52
39177;BME280;24904;52.208;21.192;2023-05-12T13:58:49;101230.29;;;19.86;25.39
39177;BME280;24904;52.208;21.192;2023-05-12T14:03:52;101229.51;;;19.78;25.53
39177;BME280;24904;52.208;21.192;2023-05-12T14:08:55;101225.33;;;19.75;25.64
39177;BME280;24904;52.208;21.192;2023-05-12T14:13:58;101214.63;;;19.73;25.70
39177;BME280;24904;52.208;21.192;2023-05-12T14:19:02;101225.50;;;19.75;25.51
39177;BME280;24904;52.208;21.192;2023-05-12T14:24:06;101226.95;;;19.73;25.25
39177;BME280;24904;52.208;21.192;2023-05-12T14:29:09;101221.45;;;19.67;25.33
39177;BME280;24904;52.208;21.192;2023-05-12T14:34:12;101214.21;;;19.61;25.52
39177;BME280;24904;52.208;21.192;2023-05-12T14:39:16;101217.29;;;19.58;25.76
39177;BME280;24904;52.208;21.192;2023-05-12T14:44:19;101212.68;;;19.53;25.55
39177;BME280;24904;52.208;21.192;2023-05-12T14:49:22;101221.69;;;19.52;25.35
39177;BME280;24904;52.208;21.192;2023-05-12T14:54:25;101219.77;;;19.47;25.25
39177;BME280;24904;52.208;21.192;2023-05-12T14:59:29;101217.19;;;19.42;25.37
39177;BME280;24904;52.208;21.192;2023-05-12T15:04:32;101220.41;;;19.39;25.31
39177;BME280;24904;52.208;21.192;2023-05-12T15:09:35;101211.73;;;19.34;25.49
39177;BME280;24904;52.208;21.192;2023-05-12T15:14:38;101212.84;;;19.25;25.57
39177;BME280;24904;52.208;21.192;2023-05-12T15:20:20;101212.21;;;19.25;25.73
39177;BME280;24904;52.208;21.192;2023-05-12T15:25:23;101209.05;;;19.24;25.46
39177;BME280;24904;52.208;21.192;2023-05-12T15:30:26;101210.98;;;19.22;25.48
39177;BME280;24904;52.208;21.192;2023-05-12T15:35:29;101210.77;;;19.19;25.65
39177;BME280;24904;52.208;21.192;2023-05-12T15:40:32;101207.40;;;19.16;25.92
39177;BME280;24904;52.208;21.192;2023-05-12T15:45:35;101208.77;;;19.12;25.77
39177;BME280;24904;52.208;21.192;2023-05-12T15:50:38;101208.81;;;19.09;25.72
39177;BME280;24904;52.208;21.192;2023-05-12T15:55:41;101210.73;;;19.01;25.70
39177;BME280;24904;52.208;21.192;2023-05-12T16:00:45;101209.73;;;18.89;25.84
39177;BME280;24904;52.208;21.192;2023-05-12T16:05:48;101209.20;;;18.78;26.15
39177;BME280;24904;52.208;21.192;2023-05-12T16:10:52;101202.59;;;18.70;26.33
39177;BME280;24904;52.208;21.192;2023-05-12T16:15:55;101193.56;;;18.67;26.44
39177;BME280;24904;52.208;21.192;2023-05-12T16:20:58;101192.14;;;18.65;26.65
39177;BME280;24904;52.208;21.192;2023-05-12T16:26:01;101195.17;;;18.64;26.76
39177;BME280;24904;52.208;21.192;2023-05-12T16:31:05;101200.81;;;18.64;26.83
39177;BME280;24904;52.208;21.192;2023-05-12T16:36:08;101196.75;;;18.64;26.66
39177;BME280;24904;52.208;21.192;2023-05-12T16:41:11;101196.44;;;18.65;26.58
39177;BME280;24904;52.208;21.192;2023-05-12T16:46:14;101195.18;;;18.63;26.64
39177;BME280;24904;52.208;21.192;2023-05-12T16:51:17;101196.95;;;18.58;26.83
39177;BME280;24904;52.208;21.192;2023-05-12T16:56:20;101199.53;;;18.53;26.96
39177;BME280;24904;52.208;21.192;2023-05-12T17:01:23;101202.20;;;18.48;27.10
39177;BME280;24904;52.208;21.192;2023-05-12T17:06:26;101207.08;;;18.44;27.24
39177;BME280;24904;52.208;21.192;2023-05-12T17:11:29;101209.11;;;18.38;27.32
39177;BME280;24904;52.208;21.192;2023-05-12T17:16:33;101213.61;;;18.32;27.33
39177;BME280;24904;52.208;21.192;2023-05-12T17:21:36;101213.88;;;18.26;27.30
39177;BME280;24904;52.208;21.192;2023-05-12T17:26:39;101215.84;;;18.19;27.54
39177;BME280;24904;52.208;21.192;2023-05-12T17:31:42;101213.49;;;18.11;27.78
39177;BME280;24904;52.208;21.192;2023-05-12T17:36:45;101214.83;;;18.02;27.87
39177;BME280;24904;52.208;21.192;2023-05-12T17:41:48;101218.23;;;17.91;28.17
39177;BME280;24904;52.208;21.192;2023-05-12T17:46:51;101221.21;;;17.81;28.26
39177;BME280;24904;52.208;21.192;2023-05-12T17:51:54;101223.64;;;17.69;28.64
39177;BME280;24904;52.208;21.192;2023-05-12T17:56:57;101225.89;;;17.59;28.78
39177;BME280;24904;52.208;21.192;2023-05-12T18:02:01;101230.06;;;17.45;29.21
39177;BME280;24904;52.208;21.192;2023-05-12T18:07:05;101230.42;;;17.27;29.52
39177;BME280;24904;52.208;21.192;2023-05-12T18:12:08;101236.51;;;17.07;29.93
39177;BME280;24904;52.208;21.192;2023-05-12T18:17:11;101240.58;;;16.87;30.65
39177;BME280;24904;52.208;21.192;2023-05-12T18:22:14;101247.21;;;16.63;31.32
39177;BME280;24904;52.208;21.192;2023-05-12T18:27:18;101254.23;;;16.36;32.43
39177;BME280;24904;52.208;21.192;2023-05-12T18:32:21;101258.51;;;16.07;33.27
39177;BME280;24904;52.208;21.192;2023-05-12T18:37:24;101264.12;;;15.81;33.89
39177;BME280;24904;52.208;21.192;2023-05-12T18:42:27;101263.02;;;15.54;34.57
39177;BME280;24904;52.208;21.192;2023-05-12T18:47:31;101268.02;;;15.28;35.30
39177;BME280;24904;52.208;21.192;2023-05-12T18:52:34;101272.13;;;15.04;36.00
39177;BME280;24904;52.208;21.192;2023-05-12T18:57:37;101275.63;;;14.77;36.58
39177;BME280;24904;52.208;21.192;2023-05-12T19:02:40;101278.66;;;14.54;37.10
39177;BME280;24904;52.208;21.192;2023-05-12T19:07:43;101281.23;;;14.30;37.75
39177;BME280;24904;52.208;21.192;2023-05-12T19:12:46;101282.49;;;14.07;38.46
39177;BME280;24904;52.208;21.192;2023-05-12T19:17:52;101282.31;;;13.85;39.21
39177;BME280;24904;52.208;21.192;2023-05-12T19:22:55;101286.30;;;13.65;40.06
39177;BME280;24904;52.208;21.192;2023-05-12T19:27:58;101287.22;;;13.46;40.68
39177;BME280;24904;52.208;21.192;2023-05-12T19:33:01;101290.44;;;13.23;41.21
39177;BME280;24904;52.208;21.192;2023-05-12T19:38:04;101289.30;;;13.02;41.72
39177;BME280;24904;52.208;21.192;2023-05-12T19:43:07;101292.65;;;12.84;42.49
39177;BME280;24904;52.208;21.192;2023-05-12T19:48:12;101291.52;;;12.74;42.97
39177;BME280;24904;52.208;21.192;2023-05-12T19:53:16;101295.48;;;12.57;43.26
39177;BME280;24904;52.208;21.192;2023-05-12T19:58:19;101299.58;;;12.39;43.52
39177;BME280;24904;52.208;21.192;2023-05-12T20:03:22;101298.05;;;12.21;43.95
39177;BME280;24904;52.208;21.192;2023-05-12T20:08:25;101302.34;;;12.07;44.43
39177;BME280;24904;52.208;21.192;2023-05-12T20:13:28;101300.44;;;11.95;44.83
39177;BME280;24904;52.208;21.192;2023-05-12T20:18:32;101303.38;;;11.82;45.29
39177;BME280;24904;52.208;21.192;2023-05-12T20:23:35;101303.20;;;11.66;45.70
39177;BME280;24904;52.208;21.192;2023-05-12T20:28:39;101300.69;;;11.52;46.23
39177;BME280;24904;52.208;21.192;2023-05-12T20:33:42;101297.35;;;11.40;46.65
39177;BME280;24904;52.208;21.192;2023-05-12T20:38:45;101296.53;;;11.28;47.10
39177;BME280;24904;52.208;21.192;2023-05-12T20:43:48;101296.17;;;11.20;47.68
39177;BME280;24904;52.208;21.192;2023-05-12T20:48:51;101298.95;;;11.14;48.01
39177;BME280;24904;52.208;21.192;2023-05-12T20:53:54;101297.35;;;11.03;48.36
39177;BME280;24904;52.208;21.192;2023-05-12T20:58:57;101297.66;;;10.90;48.94
39177;BME280;24904;52.208;21.192;2023-05-12T21:04:00;101299.39;;;10.78;48.93
39177;BME280;24904;52.208;21.192;2023-05-12T21:09:03;101298.38;;;10.68;49.52
39177;BME280;24904;52.208;21.192;2023-05-12T21:14:06;101298.46;;;10.56;49.96
39177;BME280;24904;52.208;21.192;2023-05-12T21:19:09;101305.71;;;10.46;50.06
39177;BME280;24904;52.208;21.192;2023-05-12T21:24:13;101307.56;;;10.39;50.72
39177;BME280;24904;52.208;21.192;2023-05-12T21:29:16;101311.02;;;10.36;51.14
39177;BME280;24904;52.208;21.192;2023-05-12T21:34:19;101311.53;;;10.31;51.52
39177;BME280;24904;52.208;21.192;2023-05-12T21:39:22;101312.02;;;10.21;51.77
39177;BME280;24904;52.208;21.192;2023-05-12T21:44:25;101312.86;;;10.13;52.22
39177;BME280;24904;52.208;21.192;2023-05-12T21:49:28;101316.80;;;10.04;52.71
39177;BME280;24904;52.208;21.192;2023-05-12T21:54:32;101322.88;;;9.93;52.95
39177;BME280;24904;52.208;21.192;2023-05-12T21:59:35;101326.45;;;9.86;53.46
39177;BME280;24904;52.208;21.192;2023-05-12T22:04:38;101326.95;;;9.79;53.75
39177;BME280;24904;52.208;21.192;2023-05-12T22:09:41;101328.66;;;9.73;54.03
39177;BME280;24904;52.208;21.192;2023-05-12T22:14:44;101324.91;;;9.63;54.11
39177;BME280;24904;52.208;21.192;2023-05-12T22:19:47;101329.17;;;9.55;54.45
39177;BME280;24904;52.208;21.192;2023-05-12T22:24:50;101323.37;;;9.51;54.50
39177;BME280;24904;52.208;21.192;2023-05-12T22:29:53;101320.02;;;9.44;54.83
39177;BME280;24904;52.208;21.192;2023-05-12T22:34:58;101320.17;;;9.42;55.21
39177;BME280;24904;52.208;21.192;2023-05-12T22:40:01;101322.84;;;9.37;55.57
39177;BME280;24904;52.208;21.192;2023-05-12T22:45:05;101316.27;;;9.27;55.80
39177;BME280;24904;52.208;21.192;2023-05-12T22:50:09;101310.94;;;9.27;56.24
39177;BME280;24904;52.208;21.192;2023-05-12T22:55:12;101311.63;;;9.29;56.36
39177;BME280;24904;52.208;21.192;2023-05-12T23:00:16;101313.04;;;9.31;56.63
39177;BME280;24904;52.208;21.192;2023-05-12T23:05:19;101309.64;;;9.33;56.59
39177;BME280;24904;52.208;21.192;2023-05-12T23:10:22;101309.73;;;9.33;57.00
39177;BME280;24904;52.208;21.192;2023-05-12T23:15:25;101313.73;;;9.36;57.39
39177;BME280;24904;52.208;21.192;2023-05-12T23:20:28;101312.65;;;9.37;57.37
39177;BME280;24904;52.208;21.192;2023-05-12T23:25:31;101316.40;;;9.36;57.22
39177;BME280;24904;52.208;21.192;2023-05-12T23:30:36;101315.59;;;9.35;57.62
39177;BME280;24904;52.208;21.192;2023-05-12T23:35:39;101316.34;;;9.39;57.61
39177;BME280;24904;52.208;21.192;2023-05-12T23:40:42;101309.39;;;9.40;57.56
39177;BME280;24904;52.208;21.192;2023-05-12T23:45:45;101307.96;;;9.42;57.61
39177;BME280;24904;52.208;21.192;2023-05-12T23:50:48;101308.88;;;9.39;57.84
39177;BME280;24904;52.208;21.192;2023-05-12T23:55:51;101303.65;;;9.37;57.83
